Time;durP1;ratioP1;P1;durP2;ratioP2;P2;SDS_P1;SDS_P2;PMS_P1;PMS_P2;Temp;Humidity;BMP_temperature;BMP_pressure;BME280_temperature;BME280_humidity;BME280_pressure;Samples;Min_cycle;Max_cycle;Signal;HPM_P1;HPM_P2
2021/08/27 00:00:46;;;;;;;6.15;3.28;;;13.80;99.90;;;;;;5067294;28;20041;-85
2021/08/27 00:03:12;;;;;;;7.22;3.67;;;13.80;99.90;;;;;;5057499;28;20458;-86
2021/08/27 00:05:38;;;;;;;4.10;3.35;;;13.70;99.90;;;;;;5058415;28;20032;-83
2021/08/27 00:08:05;;;;;;;6.75;3.85;;;13.60;99.90;;;;;;5059863;28;20025;-84
2021/08/27 00:10:31;;;;;;;6.57;3.75;;;13.60;99.90;;;;;;5057026;28;20025;-85
2021/08/27 00:12:58;;;;;;;7.07;3.92;;;13.60;99.90;;;;;;5063434;28;20036;-85
2021/08/27 00:15:24;;;;;;;8.73;4.15;;;13.60;99.90;;;;;;5056012;28;20033;-84
2021/08/27 00:17:50;;;;;;;8.00;3.80;;;13.70;99.90;;;;;;5072902;28;20041;-83
2021/08/27 00:20:16;;;;;;;8.75;4.78;;;13.80;99.90;;;;;;5061795;28;20036;-82
2021/08/27 00:22:43;;;;;;;5.97;3.78;;;13.90;99.90;;;;;;5057469;28;20450;-84
2021/08/27 00:25:09;;;;;;;4.95;4.07;;;13.90;99.90;;;;;;5058516;28;20397;-84
2021/08/27 00:27:36;;;;;;;6.90;4.47;;;13.90;99.90;;;;;;5052800;28;20037;-84
2021/08/27 00:30:03;;;;;;;5.75;3.80;;;13.90;99.90;;;;;;5053530;28;20135;-84
2021/08/27 00:32:30;;;;;;;7.22;4.55;;;13.80;99.90;;;;;;5051648;28;20025;-83
2021/08/27 00:34:56;;;;;;;5.90;3.35;;;13.80;99.90;;;;;;5055530;28;20044;-83
2021/08/27 00:37:23;;;;;;;6.93;3.75;;;13.70;99.90;;;;;;5060441;28;20036;-83
2021/08/27 00:39:49;;;;;;;6.05;3.88;;;13.70;99.90;;;;;;5053173;28;20037;-83
2021/08/27 00:42:15;;;;;;;7.32;3.90;;;13.70;99.90;;;;;;5052943;28;20470;-83
2021/08/27 00:44:41;;;;;;;6.05;4.00;;;13.70;99.90;;;;;;5067019;28;20037;-84
2021/08/27 00:47:07;;;;;;;5.50;3.38;;;13.70;99.90;;;;;;5061362;28;20044;-83
2021/08/27 00:49:34;;;;;;;7.07;4.05;;;13.70;99.90;;;;;;5057430;28;20033;-83
2021/08/27 00:52:00;;;;;;;5.80;3.58;;;13.60;99.90;;;;;;5063800;28;20037;-84
2021/08/27 00:54:27;;;;;;;6.07;3.70;;;13.60;99.90;;;;;;5070162;28;20047;-83
2021/08/27 00:56:53;;;;;;;6.25;3.58;;;13.70;99.90;;;;;;5066401;28;20037;-84
2021/08/27 00:59:20;;;;;;;5.95;3.55;;;13.70;99.90;;;;;;5052635;28;20507;-83
2021/08/27 01:01:46;;;;;;;4.95;3.83;;;13.70;99.90;;;;;;5052721;28;20063;-83
2021/08/27 01:04:13;;;;;;;6.15;3.63;;;13.70;99.90;;;;;;5056770;28;20032;-84
2021/08/27 01:06:52;;;;;;;5.65;3.30;;;13.70;99.90;;;;;;5058952;28;20580;-84
2021/08/27 01:09:38;;;;;;;6.28;3.22;;;13.70;99.90;;;;;;5054721;28;20033;-82
2021/08/27 01:12:10;;;;;;;4.38;2.72;;;13.60;99.90;;;;;;5068497;28;20032;-83
2021/08/27 01:14:49;;;;;;;5.90;3.60;;;13.60;99.90;;;;;;5054408;28;20027;-83
2021/08/27 01:17:33;;;;;;;6.82;2.33;;;13.60;99.90;;;;;;5070314;28;20041;-83
2021/08/27 01:20:33;;;;;;;4.53;2.25;;;13.50;99.90;;;;;;5053102;28;20355;-83
2021/08/27 01:23:02;;;;;;;5.30;3.13;;;13.50;99.90;;;;;;5052014;28;20048;-83
2021/08/27 01:25:33;;;;;;;5.82;2.63;;;13.40;99.90;;;;;;5066131;28;20045;-83
2021/08/27 01:28:02;;;;;;;5.25;3.05;;;13.40;99.90;;;;;;5067188;28;20477;-83
2021/08/27 01:30:59;;;;;;;4.10;2.58;;;13.40;99.90;;;;;;5052364;28;20032;-83
2021/08/27 01:33:27;;;;;;;4.80;2.60;;;13.30;99.90;;;;;;5051655;28;20048;-83
2021/08/27 01:36:02;;;;;;;4.90;2.50;;;13.30;99.90;;;;;;5052529;28;20056;-83
2021/08/27 01:38:32;;;;;;;6.57;2.95;;;13.20;99.90;;;;;;5051235;28;20051;-84
2021/08/27 01:40:59;;;;;;;3.47;1.48;;;13.20;99.90;;;;;;5061033;28;20041;-84
2021/08/27 01:43:28;;;;;;;3.17;1.95;;;13.20;99.90;;;;;;5052191;28;20036;-84
2021/08/27 01:46:01;;;;;;;4.07;2.00;;;13.10;99.90;;;;;;5052476;28;20454;-82
2021/08/27 01:48:31;;;;;;;4.45;2.33;;;13.10;99.90;;;;;;5051851;28;20470;-83
2021/08/27 01:50:57;;;;;;;5.07;2.60;;;13.10;99.90;;;;;;5069326;28;20040;-84
2021/08/27 01:53:26;;;;;;;3.92;2.72;;;13.00;99.90;;;;;;5065876;28;20044;-83
2021/08/27 01:56:01;;;;;;;4.70;2.60;;;13.00;99.90;;;;;;5052294;28;20041;-83
2021/08/27 01:58:30;;;;;;;5.35;2.58;;;13.00;99.90;;;;;;5051816;28;20496;-83
2021/08/27 02:00:57;;;;;;;4.13;2.90;;;13.00;99.90;;;;;;5052388;28;20041;-83
2021/08/27 02:03:25;;;;;;;6.10;2.67;;;13.00;99.90;;;;;;5063252;28;20048;-83
2021/08/27 02:05:53;;;;;;;3.90;2.90;;;12.90;99.90;;;;;;5060556;28;20036;-84
2021/08/27 02:08:21;;;;;;;4.10;2.78;;;13.00;99.90;;;;;;5052095;28;20041;-81
2021/08/27 02:10:49;;;;;;;5.22;3.08;;;12.90;99.90;;;;;;5052633;28;20033;-83
2021/08/27 02:13:17;;;;;;;5.78;2.97;;;12.80;99.90;;;;;;5052918;28;20037;-84
2021/08/27 02:15:44;;;;;;;5.28;2.75;;;12.70;99.90;;;;;;5058783;28;20036;-84
2021/08/27 02:18:10;;;;;;;4.78;2.92;;;12.60;99.90;;;;;;5067361;28;20036;-84
2021/08/27 02:20:37;;;;;;;7.25;3.20;;;12.50;99.90;;;;;;5054104;28;20052;-81
2021/08/27 02:23:05;;;;;;;5.05;3.05;;;12.50;99.90;;;;;;5051840;28;20478;-82
2021/08/27 02:25:33;;;;;;;5.55;3.38;;;12.50;99.90;;;;;;5051453;28;20040;-82
2021/08/27 02:28:03;;;;;;;5.32;3.13;;;12.50;99.90;;;;;;5052221;28;20048;-82
2021/08/27 02:30:32;;;;;;;4.97;3.30;;;12.50;99.90;;;;;;5051453;28;20040;-82
2021/08/27 02:33:01;;;;;;;4.63;3.25;;;12.50;99.90;;;;;;5068035;28;20025;-82
2021/08/27 02:35:31;;;;;;;4.63;2.75;;;12.60;99.90;;;;;;5053776;28;20040;-82
2021/08/27 02:37:59;;;;;;;5.43;3.13;;;12.60;99.90;;;;;;5054852;28;20036;-82
2021/08/27 02:40:25;;;;;;;4.68;2.80;;;12.60;99.90;;;;;;5055401;28;20041;-82
2021/08/27 02:42:51;;;;;;;5.00;2.70;;;12.60;99.90;;;;;;5055675;28;20037;-82
2021/08/27 02:45:18;;;;;;;3.83;2.83;;;12.60;99.90;;;;;;5055619;28;20040;-82
2021/08/27 02:47:45;;;;;;;6.53;2.58;;;12.60;99.90;;;;;;5054010;28;20654;-83
2021/08/27 02:50:13;;;;;;;5.55;3.05;;;12.40;99.90;;;;;;5053988;28;20045;-83
2021/08/27 02:52:58;;;;;;;4.75;2.75;;;12.40;99.90;;;;;;5054891;28;20052;-83
2021/08/27 02:55:33;;;;;;;5.15;3.00;;;12.30;99.90;;;;;;5054886;28;20025;-82
2021/08/27 02:58:04;;;;;;;4.38;2.92;;;12.20;99.90;;;;;;5060240;28;20041;-82
2021/08/27 03:00:35;;;;;;;7.05;3.17;;;12.10;99.90;;;;;;5055643;28;20045;-82
2021/08/27 03:03:03;;;;;;;5.72;3.20;;;12.00;99.90;;;;;;5067148;28;20024;-82
2021/08/27 03:05:41;;;;;;;8.32;3.00;;;12.00;99.90;;;;;;5067429;28;20029;-81
2021/08/27 03:08:13;;;;;;;7.90;3.20;;;12.00;99.90;;;;;;5068691;28;20048;-82
2021/08/27 03:10:50;;;;;;;6.82;3.28;;;12.00;99.90;;;;;;5060928;28;20147;-82
2021/08/27 03:13:27;;;;;;;9.30;3.35;;;11.90;99.90;;;;;;5072121;28;20032;-83
2021/08/27 03:15:58;;;;;;;5.53;3.53;;;11.90;99.90;;;;;;5066284;28;20041;-83
2021/08/27 03:18:31;;;;;;;5.28;3.13;;;11.80;99.90;;;;;;5065067;28;20044;-83
2021/08/27 03:21:11;;;;;;;5.82;3.58;;;11.80;99.90;;;;;;5049256;28;20056;-83
2021/08/27 03:23:38;;;;;;;7.10;2.70;;;11.80;99.90;;;;;;5071080;28;20036;-83
2021/08/27 03:26:09;;;;;;;5.25;3.60;;;11.80;99.90;;;;;;5070236;28;20039;-83
2021/08/27 03:28:41;;;;;;;6.03;3.80;;;11.80;99.90;;;;;;5066780;28;20052;-82
2021/08/27 03:31:08;;;;;;;6.32;3.67;;;11.80;99.90;;;;;;5068636;28;20028;-83
2021/08/27 03:33:36;;;;;;;8.90;3.47;;;11.70;99.90;;;;;;5068984;28;20052;-83
2021/08/27 03:36:03;;;;;;;6.00;3.53;;;11.70;99.90;;;;;;5055728;28;20048;-83
2021/08/27 03:38:30;;;;;;;5.00;3.25;;;11.60;99.90;;;;;;5059201;28;20059;-83
2021/08/27 03:40:57;;;;;;;5.38;3.67;;;11.60;99.90;;;;;;5061365;28;20037;-83
2021/08/27 03:43:25;;;;;;;7.68;3.60;;;11.60;99.90;;;;;;5056664;28;20021;-82
2021/08/27 03:45:52;;;;;;;9.38;3.95;;;11.50;99.90;;;;;;5066809;28;20037;-83
2021/08/27 03:48:20;;;;;;;7.95;3.83;;;11.50;99.90;;;;;;5064515;28;20044;-80
2021/08/27 03:50:51;;;;;;;5.72;3.40;;;11.40;99.90;;;;;;5071500;28;20029;-81
2021/08/27 03:53:18;;;;;;;7.05;3.50;;;11.30;99.90;;;;;;5056310;28;20029;-82
2021/08/27 03:55:49;;;;;;;11.63;4.55;;;11.30;99.90;;;;;;5072368;28;20481;-82
2021/08/27 03:58:20;;;;;;;7.35;3.67;;;11.30;99.90;;;;;;5054394;28;20036;-83
2021/08/27 04:00:47;;;;;;;10.82;3.78;;;11.30;99.90;;;;;;5064675;28;20049;-82
2021/08/27 04:03:14;;;;;;;6.90;3.42;;;11.30;99.90;;;;;;5053967;28;20037;-83
2021/08/27 04:05:57;;;;;;;6.72;3.83;;;11.30;99.90;;;;;;5061682;28;20029;-82
2021/08/27 04:08:24;;;;;;;7.30;3.65;;;11.20;99.90;;;;;;5052512;28;20052;-82
2021/08/27 04:10:52;;;;;;;9.30;3.60;;;11.20;99.90;;;;;;5054206;28;20520;-82
2021/08/27 04:13:18;;;;;;;7.82;3.95;;;11.20;99.90;;;;;;5062165;28;20044;-82
2021/08/27 04:15:44;;;;;;;7.22;3.42;;;11.20;99.90;;;;;;5053731;28;20032;-83
2021/08/27 04:18:11;;;;;;;3.53;2.60;;;11.20;99.90;;;;;;5055251;28;20033;-83
2021/08/27 04:20:37;;;;;;;4.72;2.90;;;11.20;99.90;;;;;;5054271;28;20048;-83
2021/08/27 04:23:03;;;;;;;6.53;2.97;;;11.20;99.90;;;;;;5055032;28;20036;-81
2021/08/27 04:25:29;;;;;;;4.57;2.53;;;11.20;99.90;;;;;;5062685;28;20025;-80
2021/08/27 04:27:56;;;;;;;4.25;2.47;;;11.30;99.90;;;;;;5054361;28;20029;-82
2021/08/27 04:30:22;;;;;;;5.88;2.30;;;11.30;99.90;;;;;;5053078;28;20041;-81
2021/08/27 04:32:48;;;;;;;4.50;2.42;;;11.30;99.90;;;;;;5072198;28;20032;-82
2021/08/27 04:35:14;;;;;;;3.78;2.17;;;11.30;99.90;;;;;;5057784;28;20143;-81
2021/08/27 04:37:41;;;;;;;5.57;2.20;;;11.20;99.90;;;;;;5061818;28;20517;-82
2021/08/27 04:40:08;;;;;;;5.57;2.95;;;11.10;99.90;;;;;;5053465;28;20033;-82
2021/08/27 04:42:34;;;;;;;7.65;2.33;;;11.10;99.90;;;;;;5053111;28;20041;-81
2021/08/27 04:45:00;;;;;;;8.68;3.30;;;11.10;99.90;;;;;;5067110;28;20044;-82
2021/08/27 04:47:26;;;;;;;5.55;2.70;;;11.10;99.90;;;;;;5052792;28;20406;-82
2021/08/27 04:49:52;;;;;;;7.80;3.05;;;11.00;99.90;;;;;;5053189;28;20033;-82
2021/08/27 04:52:19;;;;;;;5.43;2.55;;;11.00;99.90;;;;;;5053131;28;20041;-82
2021/08/27 04:54:45;;;;;;;4.90;2.38;;;11.00;99.90;;;;;;5052350;28;20029;-82
2021/08/27 04:57:11;;;;;;;6.65;2.45;;;11.10;99.90;;;;;;5052121;28;20036;-83
2021/08/27 04:59:42;;;;;;;3.35;2.20;;;11.10;99.90;;;;;;5052444;28;20116;-82
2021/08/27 05:02:09;;;;;;;5.00;2.65;;;11.10;99.90;;;;;;5052597;28;20037;-81
2021/08/27 05:04:35;;;;;;;3.65;2.17;;;11.10;99.90;;;;;;5061712;28;20040;-82
2021/08/27 05:07:01;;;;;;;6.13;2.55;;;11.10;99.90;;;;;;5063191;28;20036;-82
2021/08/27 05:09:28;;;;;;;5.32;2.90;;;11.10;99.90;;;;;;5064355;28;20028;-82
2021/08/27 05:11:54;;;;;;;5.93;2.67;;;11.10;99.90;;;;;;5052383;28;20045;-83
2021/08/27 05:14:20;;;;;;;4.65;3.08;;;11.10;99.90;;;;;;5052100;28;20040;-83
2021/08/27 05:16:46;;;;;;;4.25;2.15;;;11.20;99.90;;;;;;5059544;28;20040;-83
2021/08/27 05:19:12;;;;;;;3.92;1.90;;;11.80;99.90;;;;;;5056119;28;20040;-82
2021/08/27 05:21:39;;;;;;;4.13;1.73;;;12.80;99.90;;;;;;5075321;28;20198;-82
2021/08/27 05:24:05;;;;;;;1.85;1.05;;;13.90;99.90;;;;;;5059913;28;20040;-83
2021/08/27 05:26:32;;;;;;;3.08;0.88;;;14.60;99.90;;;;;;5067211;28;20025;-83
2021/08/27 05:28:59;;;;;;;2.67;1.02;;;15.00;99.90;;;;;;5067146;28;20462;-83
2021/08/27 05:31:25;;;;;;;2.50;1.25;;;15.70;99.90;;;;;;5052203;28;20029;-82
2021/08/27 05:33:51;;;;;;;1.38;0.60;;;16.50;97.80;;;;;;5059568;28;20025;-81
2021/08/27 05:36:17;;;;;;;1.52;0.80;;;17.00;94.90;;;;;;5068346;28;20024;-84
2021/08/27 05:38:44;;;;;;;3.53;0.80;;;17.50;93.50;;;;;;5060708;28;20040;-84
2021/08/27 05:41:10;;;;;;;2.47;0.75;;;18.40;90.40;;;;;;5060544;28;20040;-83
2021/08/27 05:43:36;;;;;;;3.35;0.80;;;18.70;86.30;;;;;;5073070;28;20048;-88
2021/08/27 05:46:03;;;;;;;1.30;0.60;;;18.50;86.40;;;;;;5066080;28;20471;-87
2021/08/27 05:48:30;;;;;;;1.80;0.77;;;18.60;86.40;;;;;;5076939;28;20027;-81
2021/08/27 05:50:56;;;;;;;2.35;0.88;;;19.00;83.40;;;;;;5085441;28;20021;-85
2021/08/27 05:53:23;;;;;;;1.98;0.98;;;18.70;81.40;;;;;;5089306;28;20027;-83
2021/08/27 05:55:49;;;;;;;3.63;0.85;;;18.20;82.90;;;;;;5072513;28;20037;-86
2021/08/27 05:58:15;;;;;;;2.75;0.80;;;17.60;86.00;;;;;;5071412;28;20029;-88
2021/08/27 06:00:42;;;;;;;3.38;0.70;;;17.40;85.60;;;;;;5054253;28;20049;-87
2021/08/27 06:03:08;;;;;;;4.68;1.20;;;17.00;87.70;;;;;;5052274;28;20036;-86
2021/08/27 06:05:34;;;;;;;5.78;0.95;;;16.90;88.40;;;;;;5057240;28;20029;-88
2021/08/27 06:08:00;;;;;;;3.35;1.10;;;17.20;87.30;;;;;;5068925;28;20032;-86
2021/08/27 06:10:26;;;;;;;3.08;0.90;;;17.50;87.10;;;;;;5055661;28;20029;-85
2021/08/27 06:12:52;;;;;;;2.47;0.90;;;18.30;83.50;;;;;;5067153;28;20032;-88
2021/08/27 06:15:19;;;;;;;3.35;1.13;;;18.40;82.70;;;;;;5071198;28;20029;-86
2021/08/27 06:17:46;;;;;;;1.65;0.80;;;18.30;83.10;;;;;;5070603;28;20359;-87
2021/08/27 06:20:12;;;;;;;3.90;1.33;;;18.00;83.50;;;;;;5069828;28;20037;-88
2021/08/27 06:22:39;;;;;;;1.90;0.82;;;17.80;83.80;;;;;;5055348;28;20051;-87
2021/08/27 06:25:06;;;;;;;7.18;1.40;;;17.60;85.10;;;;;;5055705;28;20029;-88
2021/08/27 06:27:32;;;;;;;3.75;1.70;;;18.10;83.60;;;;;;5060223;28;20037;-87
2021/08/27 06:30:00;;;;;;;3.25;1.05;;;17.90;83.70;;;;;;5069439;28;20033;-88
2021/08/27 06:32:27;;;;;;;4.47;1.50;;;17.80;85.00;;;;;;5053924;28;20029;-83
2021/08/27 06:34:56;;;;;;;3.67;1.98;;;17.60;85.70;;;;;;5068407;28;20041;-81
2021/08/27 06:38:21;;;;;;;2.17;1.20;;;17.20;87.20;;;;;;5055099;28;20028;-80
2021/08/27 06:40:11;;;;;;;4.50;2.10;;;17.40;87.50;;;;;;5054517;28;20056;-81
2021/08/27 06:42:38;;;;;;;5.60;1.77;;;17.00;89.50;;;;;;5054610;28;20463;-82
2021/08/27 06:45:05;;;;;;;3.95;1.30;;;17.60;86.90;;;;;;5054749;28;20052;-82
2021/08/27 06:47:31;;;;;;;5.28;1.52;;;17.50;86.20;;;;;;5069040;28;20029;-82
2021/08/27 06:49:57;;;;;;;6.32;1.70;;;17.40;88.70;;;;;;5055017;28;20032;-83
2021/08/27 06:52:24;;;;;;;4.10;1.80;;;17.80;87.60;;;;;;5061397;28;20035;-83
2021/08/27 06:54:51;;;;;;;5.50;1.98;;;17.60;88.10;;;;;;5064824;28;20037;-83
2021/08/27 06:57:17;;;;;;;3.22;1.58;;;17.20;86.80;;;;;;5053218;28;20033;-81
2021/08/27 06:59:43;;;;;;;3.33;1.65;;;17.00;87.50;;;;;;5062658;28;20044;-84
2021/08/27 07:02:09;;;;;;;4.65;1.63;;;17.50;87.00;;;;;;5067214;28;20033;-83
2021/08/27 07:04:35;;;;;;;6.38;1.48;;;17.30;86.40;;;;;;5071785;28;20033;-81
2021/08/27 07:07:02;;;;;;;3.08;1.33;;;17.30;85.00;;;;;;5058241;28;20058;-82
2021/08/27 07:09:28;;;;;;;2.75;1.92;;;17.40;85.50;;;;;;5069519;28;20037;-82
2021/08/27 07:11:54;;;;;;;6.55;1.33;;;17.10;85.30;;;;;;5072967;28;20052;-81
2021/08/27 07:14:20;;;;;;;5.45;1.30;;;16.30;88.00;;;;;;5057836;28;20025;-82
2021/08/27 07:16:46;;;;;;;4.72;1.35;;;15.70;89.20;;;;;;5069659;28;20036;-81
2021/08/27 07:19:13;;;;;;;6.25;1.42;;;15.40;90.70;;;;;;5060698;28;20104;-82
2021/08/27 07:21:39;;;;;;;5.85;1.50;;;15.20;91.00;;;;;;5064055;28;20037;-81
2021/08/27 07:24:05;;;;;;;5.32;1.58;;;15.20;91.70;;;;;;5054110;28;20034;-81
2021/08/27 07:26:31;;;;;;;6.15;1.50;;;15.20;91.40;;;;;;5067927;28;20052;-81
2021/08/27 07:28:57;;;;;;;5.30;1.60;;;15.20;91.60;;;;;;5073917;28;20363;-81
2021/08/27 07:31:24;;;;;;;3.88;1.10;;;15.30;91.90;;;;;;5051600;28;20041;-80
2021/08/27 07:33:50;;;;;;;5.28;1.55;;;15.20;91.10;;;;;;5053261;28;20033;-81
2021/08/27 07:36:16;;;;;;;4.05;1.63;;;15.40;91.30;;;;;;5071577;28;20409;-82
2021/08/27 07:38:42;;;;;;;4.32;1.45;;;15.50;91.30;;;;;;5062884;28;20020;-81
2021/08/27 07:41:08;;;;;;;2.55;1.40;;;15.50;91.90;;;;;;5072194;28;20489;-79
2021/08/27 07:43:35;;;;;;;3.08;1.23;;;15.50;91.20;;;;;;5052520;28;20041;-83
2021/08/27 07:46:01;;;;;;;5.05;1.45;;;15.30;91.90;;;;;;5054652;28;20021;-82
2021/08/27 07:48:28;;;;;;;5.45;1.67;;;15.30;91.50;;;;;;5072359;28;20028;-81
2021/08/27 07:50:54;;;;;;;3.03;0.90;;;15.40;92.20;;;;;;5072678;28;20032;-82
2021/08/27 07:53:20;;;;;;;3.17;1.30;;;15.50;91.90;;;;;;5058802;28;20036;-83
2021/08/27 07:55:46;;;;;;;4.13;1.27;;;15.40;90.90;;;;;;5053521;28;20041;-82
2021/08/27 07:58:13;;;;;;;5.85;1.48;;;15.40;91.20;;;;;;5086010;28;20033;-81
2021/08/27 08:00:39;;;;;;;3.65;1.42;;;15.40;91.10;;;;;;5052998;28;20033;-81
2021/08/27 08:03:05;;;;;;;3.85;1.42;;;15.40;91.60;;;;;;5054438;28;20463;-82
2021/08/27 08:05:31;;;;;;;5.15;2.38;;;15.10;91.70;;;;;;5053839;28;20036;-79
2021/08/27 08:07:57;;;;;;;4.97;2.00;;;15.10;92.00;;;;;;5060040;28;20041;-79
2021/08/27 08:10:24;;;;;;;3.88;1.75;;;15.20;92.10;;;;;;5058010;28;20036;-79
2021/08/27 08:12:50;;;;;;;4.07;1.92;;;15.50;92.20;;;;;;5057284;28;20040;-81
2021/08/27 08:15:16;;;;;;;3.75;1.73;;;16.00;91.10;;;;;;5058456;28;20029;-82
2021/08/27 08:17:42;;;;;;;5.40;1.60;;;16.90;89.30;;;;;;5056021;28;20060;-83
2021/08/27 08:20:09;;;;;;;4.03;1.95;;;17.30;89.00;;;;;;5070080;28;20028;-83
2021/08/27 08:22:35;;;;;;;4.85;1.60;;;16.90;88.20;;;;;;5060781;28;20477;-81
2021/08/27 08:25:01;;;;;;;4.60;1.75;;;16.50;88.40;;;;;;5070720;28;20035;-82
2021/08/27 08:27:33;;;;;;;3.88;1.65;;;16.20;88.60;;;;;;5042074;28;20056;-83
2021/08/27 08:30:03;;;;;;;3.88;1.73;;;16.10;88.80;;;;;;5053939;28;20045;-83
2021/08/27 08:32:30;;;;;;;5.90;1.75;;;16.50;90.80;;;;;;5075814;28;20055;-79
2021/08/27 08:34:56;;;;;;;3.78;1.80;;;17.10;86.20;;;;;;5071083;28;20048;-81
2021/08/27 08:37:22;;;;;;;4.72;2.13;;;16.90;86.20;;;;;;5068945;28;20033;-79
2021/08/27 08:39:49;;;;;;;3.00;2.22;;;16.60;86.90;;;;;;5068428;28;20037;-81
2021/08/27 08:42:15;;;;;;;2.75;2.20;;;16.40;88.80;;;;;;5052827;28;20449;-80
2021/08/27 08:44:42;;;;;;;4.53;2.08;;;16.60;88.50;;;;;;5052737;28;20466;-80
2021/08/27 08:47:10;;;;;;;5.38;2.00;;;16.70;87.70;;;;;;5052561;28;20044;-81
2021/08/27 08:49:37;;;;;;;6.10;2.35;;;16.60;87.30;;;;;;5058932;28;20048;-80
2021/08/27 08:52:05;;;;;;;3.22;2.33;;;16.40;87.30;;;;;;5052603;28;20029;-79
2021/08/27 08:54:32;;;;;;;4.47;2.50;;;16.20;86.70;;;;;;5060050;28;20458;-83
2021/08/27 08:56:59;;;;;;;3.90;2.20;;;16.00;88.10;;;;;;5052159;28;20036;-80
2021/08/27 08:59:26;;;;;;;4.10;2.42;;;16.10;88.90;;;;;;5051948;28;20044;-82
2021/08/27 09:01:52;;;;;;;6.07;3.22;;;16.10;88.70;;;;;;5052933;28;20037;-81
2021/08/27 09:04:19;;;;;;;6.25;3.22;;;15.90;90.00;;;;;;5060124;28;20036;-80
2021/08/27 09:06:45;;;;;;;4.25;3.22;;;15.90;90.40;;;;;;5068182;28;20052;-81
2021/08/27 09:09:33;;;;;;;5.78;3.95;;;16.00;89.90;;;;;;5052316;28;20060;-80
2021/08/27 09:12:14;;;;;;;7.57;2.90;;;16.20;88.80;;;;;;5051182;28;20037;-81
2021/08/27 09:14:40;;;;;;;5.55;3.33;;;16.30;89.30;;;;;;5051825;28;20100;-83
2021/08/27 09:17:06;;;;;;;4.47;3.10;;;16.40;87.10;;;;;;5052229;28;20041;-80
2021/08/27 09:19:53;;;;;;;7.15;3.30;;;16.30;87.40;;;;;;5052296;28;20037;-80
2021/08/27 09:22:20;;;;;;;7.80;3.45;;;16.40;87.60;;;;;;5052781;28;20390;-81
2021/08/27 09:25:07;;;;;;;6.07;2.92;;;16.40;85.50;;;;;;5052970;28;20036;-81
2021/08/27 09:27:37;;;;;;;5.15;3.15;;;16.40;86.30;;;;;;5052010;28;20033;-81
2021/08/27 09:30:11;;;;;;;3.40;2.70;;;16.60;85.10;;;;;;5052456;28;20036;-82
2021/08/27 09:32:37;;;;;;;5.25;3.42;;;16.90;84.40;;;;;;5060499;28;20047;-83
2021/08/27 09:35:15;;;;;;;4.18;3.40;;;17.40;83.60;;;;;;5052491;28;20037;-82
2021/08/27 09:37:46;;;;;;;5.90;3.17;;;17.40;83.70;;;;;;5051592;28;20431;-82
2021/08/27 09:40:20;;;;;;;7.03;3.63;;;17.40;83.00;;;;;;5051350;28;20028;-82
2021/08/27 09:42:49;;;;;;;7.20;3.75;;;17.40;83.20;;;;;;5062157;28;20348;-81
2021/08/27 09:45:29;;;;;;;4.65;3.08;;;17.40;83.00;;;;;;5056655;28;20068;-81
2021/08/27 09:48:01;;;;;;;9.68;3.38;;;17.30;83.70;;;;;;5064712;28;20032;-82
2021/08/27 09:50:29;;;;;;;5.28;3.90;;;17.10;82.70;;;;;;5056300;28;20032;-81
2021/08/27 09:52:58;;;;;;;6.28;3.70;;;16.90;84.80;;;;;;5056050;28;20033;-82
2021/08/27 09:55:26;;;;;;;7.65;4.55;;;17.20;83.70;;;;;;5055721;28;20025;-81
2021/08/27 09:58:04;;;;;;;11.55;3.92;;;17.30;82.70;;;;;;5056795;28;20037;-81
2021/08/27 10:00:33;;;;;;;6.00;3.63;;;17.20;84.40;;;;;;5055541;28;20033;-81
2021/08/27 10:03:03;;;;;;;7.00;4.18;;;17.50;82.70;;;;;;5068425;28;20037;-81
2021/08/27 10:05:38;;;;;;;6.13;4.25;;;17.30;82.00;;;;;;5055742;28;20032;-80
2021/08/27 10:08:20;;;;;;;8.48;4.35;;;17.10;83.30;;;;;;5070246;28;20033;-80
2021/08/27 10:10:49;;;;;;;7.03;4.30;;;17.00;83.30;;;;;;5056016;28;20036;-81
2021/08/27 10:13:16;;;;;;;7.00;4.40;;;17.20;84.00;;;;;;5054212;28;20037;-79
2021/08/27 10:15:43;;;;;;;6.55;4.32;;;17.30;83.80;;;;;;5057830;28;20193;-79
2021/08/27 10:18:11;;;;;;;5.45;3.95;;;17.30;82.60;;;;;;5061401;28;20052;-78
2021/08/27 10:20:39;;;;;;;7.00;3.75;;;17.40;83.50;;;;;;5074717;28;20563;-79
2021/08/27 10:23:16;;;;;;;4.72;3.60;;;17.80;81.30;;;;;;5055998;28;20037;-82
2021/08/27 10:25:42;;;;;;;5.90;4.07;;;17.50;80.10;;;;;;5054863;28;20471;-81
2021/08/27 10:28:09;;;;;;;6.07;4.10;;;17.40;80.80;;;;;;5056219;28;20036;-82
2021/08/27 10:30:47;;;;;;;6.30;4.20;;;17.40;81.00;;;;;;5055406;28;20039;-82
2021/08/27 10:33:18;;;;;;;4.35;3.25;;;17.20;80.90;;;;;;5072227;28;20024;-81
2021/08/27 10:35:45;;;;;;;;;;;17.20;79.90;;;;;;5056264;28;20045;-78
2021/08/27 10:38:40;;;;;;;6.78;4.05;;;17.30;79.30;;;;;;5071229;28;19909;-82
2021/08/27 10:41:21;;;;;;;5.03;4.13;;;17.50;80.50;;;;;;5087758;28;20041;-81
2021/08/27 10:44:00;;;;;;;4.57;4.10;;;17.60;78.80;;;;;;5064054;28;20037;-82
2021/08/27 10:46:45;;;;;;;6.45;4.35;;;17.60;78.30;;;;;;5055560;28;20025;-79
2021/08/27 10:49:12;;;;;;;6.78;4.38;;;17.60;79.50;;;;;;5075015;28;20036;-80
2021/08/27 10:51:41;;;;;;;6.57;4.20;;;17.80;78.90;;;;;;5056344;28;20036;-79
2021/08/27 10:54:08;;;;;;;4.70;3.90;;;17.70;78.20;;;;;;5055315;28;20033;-81
2021/08/27 10:56:50;;;;;;;6.22;3.53;;;17.80;77.50;;;;;;5055847;28;20033;-81
2021/08/27 10:59:21;;;;;;;7.22;3.97;;;17.90;76.20;;;;;;5055457;28;20029;-78
2021/08/27 11:02:01;;;;;;;6.78;4.10;;;17.90;76.50;;;;;;5055617;28;20037;-80
2021/08/27 11:04:28;;;;;;;4.35;3.05;;;18.00;77.00;;;;;;5055989;28;20040;-80
2021/08/27 11:07:05;;;;;;;5.63;3.72;;;18.10;76.40;;;;;;5057534;28;20033;-79
2021/08/27 11:09:33;;;;;;;5.80;3.60;;;17.90;76.60;;;;;;5059169;28;20045;-79
2021/08/27 11:12:21;;;;;;;4.93;3.58;;;17.70;76.60;;;;;;5071294;28;20040;-81
2021/08/27 11:14:53;;;;;;;5.65;3.30;;;17.60;77.60;;;;;;5055636;28;20052;-82
2021/08/27 11:17:20;;;;;;;6.72;4.10;;;17.40;77.30;;;;;;5055959;28;20052;-80
2021/08/27 11:19:49;;;;;;;5.90;3.00;;;17.30;78.10;;;;;;5060532;28;20029;-80
2021/08/27 11:22:53;;;;;;;5.60;3.40;;;17.40;78.30;;;;;;5072822;28;20047;-77
2021/08/27 11:25:23;;;;;;;5.60;3.85;;;17.60;75.80;;;;;;5024865;28;20084;-81
2021/08/27 11:28:13;;;;;;;6.22;3.85;;;17.60;76.80;;;;;;5014520;28;20114;-81
2021/08/27 11:30:41;;;;;;;6.72;4.10;;;17.80;76.40;;;;;;5000155;28;20053;-84
2021/08/27 11:33:46;;;;;;;6.72;3.47;;;18.00;75.90;;;;;;5011072;28;20044;-81
2021/08/27 11:36:13;;;;;;;5.70;3.35;;;18.20;75.40;;;;;;5010992;28;20050;-80
2021/08/27 11:38:40;;;;;;;5.97;3.90;;;18.20;74.30;;;;;;5011804;28;20037;-81
2021/08/27 11:41:07;;;;;;;5.75;4.28;;;18.20;73.80;;;;;;5011735;28;20046;-80
2021/08/27 11:43:36;;;;;;;5.38;3.85;;;18.40;74.20;;;;;;5011234;28;20050;-79
2021/08/27 11:46:04;;;;;;;7.88;4.90;;;18.70;74.60;;;;;;4994834;28;20452;-81
2021/08/27 11:48:41;;;;;;;5.65;4.25;;;18.90;73.40;;;;;;5010585;28;20050;-79
2021/08/27 11:51:14;;;;;;;7.20;4.30;;;18.50;74.00;;;;;;5011250;28;20033;-82
2021/08/27 11:53:41;;;;;;;5.68;3.88;;;18.30;75.00;;;;;;5010136;28;20038;-82
2021/08/27 11:56:07;;;;;;;4.68;3.38;;;18.30;74.00;;;;;;5011323;28;20423;-81
2021/08/27 11:58:43;;;;;;;4.95;4.07;;;18.30;75.30;;;;;;5010089;28;20037;-84
2021/08/27 12:01:30;;;;;;;5.97;3.80;;;18.50;74.70;;;;;;5023294;28;20049;-81
2021/08/27 12:03:57;;;;;;;7.03;4.22;;;18.60;73.50;;;;;;5066670;28;20051;-81
2021/08/27 12:06:25;;;;;;;6.95;3.63;;;18.50;74.00;;;;;;5056146;28;20478;-79
2021/08/27 12:08:51;;;;;;;5.55;4.00;;;18.30;74.10;;;;;;5055819;28;20024;-80
2021/08/27 12:11:31;;;;;;;5.75;4.10;;;18.40;73.70;;;;;;5062501;28;20048;-81
2021/08/27 12:13:59;;;;;;;7.30;4.00;;;18.40;73.80;;;;;;5053470;28;20055;-77
2021/08/27 12:16:26;;;;;;;6.00;3.75;;;18.40;74.60;;;;;;5053466;28;20529;-77
2021/08/27 12:18:53;;;;;;;4.88;3.10;;;18.80;74.20;;;;;;5053985;28;20033;-80
2021/08/27 12:21:25;;;;;;;5.72;3.90;;;19.20;71.30;;;;;;5053519;28;20048;-77
2021/08/27 12:24:08;;;;;;;4.82;3.40;;;19.20;71.30;;;;;;5053814;28;20488;-78
2021/08/27 12:26:35;;;;;;;5.60;3.60;;;18.80;71.30;;;;;;5068920;28;20060;-79
2021/08/27 12:29:02;;;;;;;4.57;2.97;;;18.70;73.20;;;;;;5052736;28;20504;-79
2021/08/27 12:31:39;;;;;;;4.85;3.33;;;18.60;72.60;;;;;;5057802;28;20029;-79
2021/08/27 12:34:06;;;;;;;5.38;2.88;;;18.60;72.50;;;;;;5075940;28;20068;-81
2021/08/27 12:36:40;;;;;;;3.38;2.58;;;18.50;71.80;;;;;;5071620;28;20652;-80
2021/08/27 12:39:10;;;;;;;4.40;2.28;;;18.50;71.30;;;;;;5058474;28;20036;-81
2021/08/27 12:41:37;;;;;;;4.60;2.55;;;18.50;71.20;;;;;;5053673;28;20045;-80
2021/08/27 12:44:08;;;;;;;2.88;2.13;;;18.70;70.60;;;;;;5057205;28;20044;-81
2021/08/27 12:46:35;;;;;;;3.17;1.83;;;18.80;69.70;;;;;;5052880;28;20025;-80
2021/08/27 12:49:21;;;;;;;7.50;2.30;;;18.60;69.50;;;;;;5053567;28;20394;-80
2021/08/27 12:51:59;;;;;;;3.60;2.47;;;18.40;70.80;;;;;;5052625;28;20046;-80
2021/08/27 12:54:26;;;;;;;4.22;2.25;;;18.50;71.70;;;;;;5053532;28;20033;-79
2021/08/27 12:57:03;;;;;;;3.13;1.95;;;18.60;72.50;;;;;;5053051;28;20040;-80
2021/08/27 12:59:30;;;;;;;3.63;2.10;;;18.60;71.20;;;;;;5063596;28;20039;-78